| Date | Time | Temp. (oF) | Dew Point (oF) | Rel. Hum. (%) | Press. (in.) | Wind Dir. | Wind Speed (mph) | Hourly Rainfall (in.) |
|
|---|---|---|---|---|---|---|---|---|---|
| 1 | 11/23 | 00:00 | 30 | 21 | 69 | 30.15 | WSW | 3 | 0.00 |
| 2 | 11/22 | 23:00 | 32 | 21 | 64 | 30.14 | WNW | 3 | 0.00 |
| 3 | 11/22 | 22:00 | 33 | 21 | 63 | 30.14 | WSW | 1 | 0.00 |
| 4 | 11/22 | 21:00 | 35 | 22 | 60 | 30.13 | NW | 7 | 0.00 |
| 5 | 11/22 | 20:00 | 36 | 22 | 57 | 30.12 | NNW | 7 | 0.00 |
| 6 | 11/22 | 19:00 | 38 | 23 | 56 | 30.10 | NW | 9 | 0.00 |
| 7 | 11/22 | 18:00 | 39 | 24 | 55 | 30.08 | WNW | 7 | 0.00 |
| 8 | 11/22 | 17:00 | 41 | 24 | 52 | 30.05 | NW | 11 | 0.00 |
| 9 | 11/22 | 16:00 | 44 | 27 | 52 | 30.02 | WNW | 12 | 0.00 |
| 10 | 11/22 | 15:00 | 45 | 27 | 50 | 30.00 | NW | 13 | 0.00 |
| 11 | 11/22 | 14:00 | 46 | 31 | 56 | 29.98 | NW | 12 | 0.00 |
| 12 | 11/22 | 13:00 | 49 | 29 | 47 | 29.96 | NW | 17 | 0.00 |
| 13 | 11/22 | 12:00 | 50 | 30 | 48 | 29.95 | NW | 13 | 0.00 |
| 14 | 11/22 | 11:00 | 50 | 33 | 54 | 29.95 | N | 14 | 0.00 |
| 15 | 11/22 | 10:00 | 50 | 37 | 61 | 29.93 | WNW | 7 | 0.00 |
| 16 | 11/22 | 09:00 | 48 | 40 | 75 | 29.93 | W | 10 | 0.00 |
| 17 | 11/22 | 08:00 | 45 | 42 | 91 | 29.91 | NNW | 1 | 0.00 |
| 18 | 11/22 | 07:00 | 45 | 42 | 92 | 29.90 | NW | 4 | 0.00 |
| 19 | 11/22 | 06:00 | 45 | 43 | 93 | 29.88 | NW | 2 | 0.00 |
| 20 | 11/22 | 05:00 | 45 | 42 | 91 | 29.87 | NW | 1 | 0.00 |
| 21 | 11/22 | 04:00 | 45 | 42 | 90 | 29.89 | SE | 3 | 0.00 |
| 22 | 11/22 | 03:00 | 47 | 42 | 84 | 29.90 | SSE | 1 | 0.00 |
| 23 | 11/22 | 02:00 | 49 | 43 | 80 | 29.92 | SSW | 3 | 0.00 |
| 24 | 11/22 | 01:00 | 49 | 42 | 79 | 29.93 | S | 5 | 0.00 |